createdAt,value
2022-12-03T00:00:12.212Z,93926.06
2022-12-03T00:02:40.769Z,93928.06
2022-12-03T00:05:07.932Z,93929.09
2022-12-03T00:07:35.245Z,93927.53
2022-12-03T00:10:05.262Z,93929.44
2022-12-03T00:12:32.700Z,93924.66
2022-12-03T00:14:59.773Z,93925.13
2022-12-03T00:17:26.838Z,93914.84
2022-12-03T00:19:53.595Z,93909.81
2022-12-03T00:22:20.412Z,93914.34
2022-12-03T00:24:47.181Z,93917.91
2022-12-03T00:27:13.936Z,93910.75
2022-12-03T00:29:41.020Z,93911.28
2022-12-03T00:32:09.240Z,93912.47
2022-12-03T00:34:37.295Z,93924.84
2022-12-03T00:37:04.190Z,93923.47
2022-12-03T00:39:32.849Z,93920.81
2022-12-03T00:42:02.420Z,93923.34
2022-12-03T00:44:29.511Z,93915.31
2022-12-03T00:46:59.142Z,93916.22
2022-12-03T00:49:26.303Z,93921.69
2022-12-03T00:51:53.375Z,93924.22
2022-12-03T00:54:20.138Z,93935.19
2022-12-03T00:56:49.613Z,93931.38
2022-12-03T00:59:16.409Z,93929.63
2022-12-03T01:01:43.194Z,93934.75
2022-12-03T01:04:10.026Z,93939.41
2022-12-03T01:06:37.069Z,93941.38
2022-12-03T01:09:04.173Z,93944.44
2022-12-03T01:11:31.224Z,93948.13
2022-12-03T01:13:57.989Z,93946.38
2022-12-03T01:16:27.928Z,93946.00
2022-12-03T01:18:54.785Z,93943.34
2022-12-03T01:21:21.935Z,93932.09
2022-12-03T01:23:48.758Z,93927.94
2022-12-03T01:26:15.828Z,93940.50
2022-12-03T01:28:45.485Z,93941.03
2022-12-03T01:31:12.651Z,93929.19
2022-12-03T01:33:40.556Z,93922.91
2022-12-03T01:36:10.057Z,93926.41
2022-12-03T01:38:38.068Z,93935.25
2022-12-03T01:41:11.528Z,93924.13
2022-12-03T01:43:39.929Z,93924.03
2022-12-03T01:46:07.438Z,93922.84
2022-12-03T01:48:35.116Z,93926.88
2022-12-03T01:51:02.139Z,93926.28
2022-12-03T01:53:29.203Z,93926.63
2022-12-03T01:55:59.014Z,93930.69
2022-12-03T01:58:26.825Z,93931.13
2022-12-03T02:00:57.888Z,93918.00
2022-12-03T02:03:25.507Z,93930.91
2022-12-03T02:05:52.452Z,93924.88
2022-12-03T02:08:38.119Z,93926.09
2022-12-03T02:11:18.427Z,93933.28
2022-12-03T02:13:45.495Z,93935.59
2022-12-03T02:16:12.730Z,93943.19
2022-12-03T02:18:39.493Z,93934.56
2022-12-03T02:21:29.335Z,93941.97
2022-12-03T02:24:04.491Z,93939.31
2022-12-03T02:26:31.578Z,93942.34
2022-12-03T02:28:58.671Z,93940.41
2022-12-03T02:31:25.522Z,93946.28
2022-12-03T02:33:52.728Z,93946.97
2022-12-03T02:36:19.900Z,93953.72
2022-12-03T02:38:46.660Z,93957.16
2022-12-03T02:41:14.058Z,93963.28
2022-12-03T02:43:41.156Z,93950.09
2022-12-03T02:46:10.616Z,93943.50
2022-12-03T02:48:38.245Z,93949.88
2022-12-03T02:51:06.865Z,93944.88
2022-12-03T02:53:38.660Z,93933.56
2022-12-03T02:56:05.840Z,93934.28
2022-12-03T02:58:32.666Z,93931.25
2022-12-03T03:00:59.572Z,93936.31
2022-12-03T03:03:27.197Z,93926.63
2022-12-03T03:05:54.070Z,93932.13
2022-12-03T03:08:21.069Z,93941.97
2022-12-03T03:10:47.818Z,93932.53
2022-12-03T03:13:16.100Z,93934.44
2022-12-03T03:15:42.885Z,93939.25
2022-12-03T03:18:10.531Z,93940.03
2022-12-03T03:20:40.097Z,93945.81
2022-12-03T03:23:17.649Z,93944.69
2022-12-03T03:25:56.668Z,93948.56
2022-12-03T03:28:23.380Z,93943.56
2022-12-03T03:30:50.504Z,93940.03
2022-12-03T03:33:17.645Z,93935.22
2022-12-03T03:35:45.692Z,93939.88
2022-12-03T03:38:16.671Z,93940.31
2022-12-03T03:40:45.433Z,93937.56
2022-12-03T03:43:13.452Z,93940.03
2022-12-03T03:45:41.622Z,93936.91
2022-12-03T03:48:08.793Z,93935.78
2022-12-03T03:50:35.539Z,93936.31
2022-12-03T03:53:02.638Z,93928.47
2022-12-03T03:55:29.998Z,93927.66
2022-12-03T03:57:57.154Z,93924.41
2022-12-03T04:00:24.639Z,93932.31
2022-12-03T04:02:52.756Z,93937.84
2022-12-03T04:05:21.850Z,93938.28
2022-12-03T04:07:48.945Z,93939.38
2022-12-03T04:10:17.003Z,93933.88
2022-12-03T04:13:04.341Z,93934.72
2022-12-03T04:15:31.396Z,93930.97
2022-12-03T04:18:07.595Z,93928.53
2022-12-03T04:20:34.467Z,93928.34
2022-12-03T04:23:04.278Z,93933.47
2022-12-03T04:25:31.356Z,93942.56
2022-12-03T04:27:58.164Z,93933.41
2022-12-03T04:30:25.333Z,93938.63
2022-12-03T04:32:55.055Z,93933.88
2022-12-03T04:35:22.153Z,93925.97
2022-12-03T04:37:49.058Z,93939.38
2022-12-03T04:40:16.117Z,93940.72
2022-12-03T04:42:43.181Z,93932.78
2022-12-03T04:45:11.156Z,93930.47
2022-12-03T04:47:40.047Z,93927.47
2022-12-03T04:50:07.815Z,93928.13
2022-12-03T04:52:34.660Z,93922.56
2022-12-03T04:55:01.777Z,93923.56
2022-12-03T04:57:29.246Z,93932.19
2022-12-03T04:59:56.265Z,93936.47
2022-12-03T05:02:23.063Z,93928.22
2022-12-03T05:04:50.175Z,93930.66
2022-12-03T05:07:19.582Z,93932.31
2022-12-03T05:09:46.643Z,93929.06
2022-12-03T05:12:13.681Z,93925.59
2022-12-03T05:14:40.428Z,93918.03
2022-12-03T05:17:07.561Z,93919.94
2022-12-03T05:19:34.473Z,93922.00
2022-12-03T05:22:02.312Z,93918.03
2022-12-03T05:24:29.230Z,93916.69
2022-12-03T05:26:58.799Z,93913.16
2022-12-03T05:29:25.871Z,93921.63
2022-12-03T05:31:52.965Z,93918.44
2022-12-03T05:34:21.003Z,93913.34
2022-12-03T05:36:50.592Z,93912.41
2022-12-03T05:39:18.639Z,93905.78
2022-12-03T05:41:45.694Z,93902.25
2022-12-03T05:44:16.251Z,93893.03
2022-12-03T05:46:48.406Z,93888.72
2022-12-03T05:49:17.975Z,93881.09
2022-12-03T05:51:45.055Z,93881.25
2022-12-03T05:54:12.088Z,93872.63
2022-12-03T05:56:39.153Z,93871.00
2022-12-03T05:59:06.232Z,93878.75
2022-12-03T06:01:33.706Z,93882.53
2022-12-03T06:04:00.915Z,93885.91
2022-12-03T06:06:27.773Z,93888.56
2022-12-03T06:08:54.837Z,93893.97
2022-12-03T06:11:23.120Z,93895.38
2022-12-03T06:13:50.297Z,93881.59
2022-12-03T06:16:17.474Z,93881.88
2022-12-03T06:18:44.626Z,93889.09
2022-12-03T06:21:11.404Z,93897.00
2022-12-03T06:23:38.252Z,93892.66
2022-12-03T06:26:05.255Z,93901.22
2022-12-03T06:28:32.417Z,93895.16
2022-12-03T06:30:59.515Z,93892.06
2022-12-03T06:33:26.624Z,93897.13
2022-12-03T06:35:53.678Z,93904.28
2022-12-03T06:38:20.776Z,93900.56
2022-12-03T06:40:48.729Z,93914.53
2022-12-03T06:43:15.848Z,93918.28
2022-12-03T06:45:47.519Z,93914.19
2022-12-03T06:48:14.801Z,93923.25
2022-12-03T06:50:41.986Z,93924.81
2022-12-03T06:53:09.387Z,93918.69
2022-12-03T06:55:36.171Z,93924.47
2022-12-03T06:58:02.976Z,93928.53
2022-12-03T07:00:32.648Z,93925.56
2022-12-03T07:03:00.185Z,93917.81
2022-12-03T07:05:27.112Z,93911.59
2022-12-03T07:07:54.363Z,93913.91
2022-12-03T07:10:21.728Z,93914.78
2022-12-03T07:12:51.206Z,93910.78
2022-12-03T07:15:18.292Z,93911.97
2022-12-03T07:17:45.353Z,93913.44
2022-12-03T07:20:15.034Z,93920.88
2022-12-03T07:22:41.820Z,93922.63
2022-12-03T07:25:11.587Z,93910.88
2022-12-03T07:27:38.856Z,93917.91
2022-12-03T07:30:07.541Z,93914.22
2022-12-03T07:32:35.426Z,93918.69
2022-12-03T07:35:03.579Z,93910.41
2022-12-03T07:37:30.431Z,93915.72
2022-12-03T07:39:57.592Z,93913.38
2022-12-03T07:42:24.665Z,93913.13
2022-12-03T07:44:52.034Z,93915.06
2022-12-03T07:47:19.148Z,93911.41
2022-12-03T07:49:48.882Z,93906.53
2022-12-03T07:52:18.444Z,93900.97
2022-12-03T07:54:45.657Z,93891.97
2022-12-03T07:57:15.161Z,93891.88
2022-12-03T07:59:42.696Z,93891.47
2022-12-03T08:02:09.962Z,93882.66
2022-12-03T08:04:37.712Z,93884.88
2022-12-03T08:07:04.518Z,93879.28
2022-12-03T08:09:31.649Z,93886.34
2022-12-03T08:11:58.822Z,93872.09
2022-12-03T08:14:26.469Z,93883.00
2022-12-03T08:16:53.289Z,93881.50
2022-12-03T08:19:20.372Z,93881.03
2022-12-03T08:21:47.448Z,93879.16
2022-12-03T08:24:15.785Z,93883.41
2022-12-03T08:26:43.864Z,93883.84
2022-12-03T08:29:12.249Z,93885.81
2022-12-03T08:31:39.822Z,93892.03
2022-12-03T08:34:22.136Z,93886.59
2022-12-03T08:36:56.899Z,93881.47
2022-12-03T08:39:32.683Z,93890.97
2022-12-03T08:42:22.524Z,93879.34
2022-12-03T08:44:52.628Z,93880.22
2022-12-03T08:47:20.418Z,93882.00
2022-12-03T08:50:08.017Z,93870.66
2022-12-03T08:52:34.836Z,93877.78
2022-12-03T08:55:10.685Z,93876.03
2022-12-03T08:57:40.776Z,93863.06
2022-12-03T09:00:34.042Z,93861.28
2022-12-03T09:03:01.858Z,93857.88
2022-12-03T09:05:30.416Z,93857.34
2022-12-03T09:07:57.513Z,93868.72
2022-12-03T09:10:24.382Z,93865.63
2022-12-03T09:12:52.167Z,93870.31
2022-12-03T09:15:18.975Z,93872.50
2022-12-03T09:17:45.957Z,93870.56
2022-12-03T09:20:13.106Z,93871.66
2022-12-03T09:22:42.624Z,93863.59
2022-12-03T09:25:10.157Z,93865.91
2022-12-03T09:27:39.821Z,93872.66
2022-12-03T09:30:08.126Z,93866.13
2022-12-03T09:32:35.393Z,93874.97
2022-12-03T09:35:02.194Z,93881.59
2022-12-03T09:37:29.181Z,93880.31
2022-12-03T09:39:56.389Z,93885.75
2022-12-03T09:42:23.213Z,93899.00
2022-12-03T09:44:51.930Z,93891.78
2022-12-03T09:47:20.013Z,93895.22
2022-12-03T09:49:47.489Z,93901.63
2022-12-03T09:52:22.561Z,93892.78
2022-12-03T09:54:49.465Z,93897.31
2022-12-03T09:57:16.296Z,93900.19
2022-12-03T09:59:43.132Z,93902.00
2022-12-03T10:02:29.445Z,93902.34
2022-12-03T10:04:57.065Z,93902.31
2022-12-03T10:07:26.184Z,93896.59
2022-12-03T10:09:53.511Z,93892.72
2022-12-03T10:12:22.893Z,93886.13
2022-12-03T10:14:50.108Z,93883.44
2022-12-03T10:17:17.035Z,93875.28
2022-12-03T10:19:43.769Z,93869.09
2022-12-03T10:22:11.453Z,93877.28
2022-12-03T10:24:41.036Z,93876.75
2022-12-03T10:27:24.652Z,93872.09
2022-12-03T10:29:58.960Z,93867.53
2022-12-03T10:32:27.006Z,93860.19
2022-12-03T10:35:09.896Z,93858.56
2022-12-03T10:37:36.755Z,93851.16
2022-12-03T10:40:12.565Z,93859.72
2022-12-03T10:42:40.245Z,93850.44
2022-12-03T10:45:27.281Z,93855.44
2022-12-03T10:48:13.174Z,93856.69
2022-12-03T10:50:50.634Z,93849.81
2022-12-03T10:53:17.860Z,93852.81
2022-12-03T10:55:45.060Z,93850.88
2022-12-03T10:58:22.909Z,93847.47
2022-12-03T11:00:52.858Z,93847.22
2022-12-03T11:03:23.320Z,93843.44
2022-12-03T11:05:50.565Z,93838.56
2022-12-03T11:08:24.971Z,93834.34
2022-12-03T11:11:01.682Z,93830.13
2022-12-03T11:13:44.400Z,93822.97
2022-12-03T11:16:11.159Z,93820.75
2022-12-03T11:18:49.884Z,93829.50
2022-12-03T11:21:16.933Z,93830.66
2022-12-03T11:24:03.277Z,93836.09
2022-12-03T11:26:29.983Z,93838.38
2022-12-03T11:28:57.691Z,93842.66
2022-12-03T11:32:02.797Z,93840.22
2022-12-03T11:34:35.151Z,93843.28
2022-12-03T11:37:10.677Z,93833.41
2022-12-03T11:39:52.857Z,93841.16
2022-12-03T11:42:23.135Z,93842.63
2022-12-03T11:45:07.250Z,93843.13
2022-12-03T11:47:48.421Z,93841.59
2022-12-03T11:50:24.651Z,93838.31
2022-12-03T11:53:25.280Z,93844.63
2022-12-03T11:56:04.591Z,93846.19
2022-12-03T11:58:39.168Z,93857.06
2022-12-03T12:01:07.161Z,93853.47
2022-12-03T12:03:43.171Z,93845.28
2022-12-03T12:06:28.073Z,93852.84
2022-12-03T12:08:56.792Z,93828.81
2022-12-03T12:11:30.867Z,93829.88
2022-12-03T12:14:18.506Z,93829.25
2022-12-03T12:16:48.280Z,93818.84
2022-12-03T12:19:30.425Z,93816.41
2022-12-03T12:22:25.362Z,93816.47
2022-12-03T12:25:02.218Z,93807.00
2022-12-03T12:27:39.990Z,93806.47
2022-12-03T12:30:20.849Z,93813.44
2022-12-03T12:33:09.192Z,93815.66
2022-12-03T12:35:35.889Z,93806.03
2022-12-03T12:38:14.856Z,93816.53
2022-12-03T12:40:43.047Z,93808.88
2022-12-03T12:43:25.624Z,93798.97
2022-12-03T12:45:54.876Z,93798.72
2022-12-03T12:48:36.897Z,93790.66
2022-12-03T12:51:10.300Z,93793.94
2022-12-03T12:53:37.492Z,93796.06
2022-12-03T12:56:21.561Z,93787.31
2022-12-03T12:58:48.723Z,93788.31
2022-12-03T13:01:26.985Z,93794.84
2022-12-03T13:03:53.787Z,93790.31
2022-12-03T13:06:31.118Z,93792.84
2022-12-03T13:08:58.223Z,93795.38
2022-12-03T13:11:27.926Z,93788.66
2022-12-03T13:13:55.104Z,93789.09
2022-12-03T13:16:32.278Z,93791.78
2022-12-03T13:18:59.751Z,93795.94
2022-12-03T13:21:43.024Z,93781.81
2022-12-03T13:24:31.985Z,93788.19
2022-12-03T13:27:22.908Z,93779.25
2022-12-03T13:29:59.064Z,93775.78
2022-12-03T13:32:47.660Z,93786.00
2022-12-03T13:35:31.188Z,93786.22
2022-12-03T13:37:58.692Z,93779.91
2022-12-03T13:40:40.841Z,93779.22
2022-12-03T13:43:17.052Z,93772.50
2022-12-03T13:45:44.230Z,93775.78
2022-12-03T13:48:30.837Z,93780.47
2022-12-03T13:51:02.012Z,93776.56
2022-12-03T13:53:48.625Z,93767.63
2022-12-03T13:56:21.048Z,93764.47
2022-12-03T13:58:48.230Z,93779.13
2022-12-03T14:01:15.368Z,93772.97
2022-12-03T14:03:42.514Z,93762.16
2022-12-03T14:06:10.373Z,93765.63
2022-12-03T14:08:37.084Z,93772.13
2022-12-03T14:11:06.825Z,93772.59
2022-12-03T14:13:33.669Z,93767.13
2022-12-03T14:16:00.862Z,93765.31
2022-12-03T14:18:27.752Z,93761.72
2022-12-03T14:20:54.933Z,93758.84
2022-12-03T14:23:24.712Z,93761.31
2022-12-03T14:25:51.962Z,93768.97
2022-12-03T14:28:19.009Z,93760.06
2022-12-03T14:30:45.757Z,93761.75
2022-12-03T14:33:13.169Z,93762.66
2022-12-03T14:35:41.094Z,93763.19
2022-12-03T14:38:10.616Z,93751.78
2022-12-03T14:40:40.145Z,93762.22
2022-12-03T14:43:07.164Z,93763.66
2022-12-03T14:45:36.682Z,93759.91
2022-12-03T14:48:03.778Z,93753.50
2022-12-03T14:50:30.604Z,93756.22
2022-12-03T14:52:57.644Z,93761.06
2022-12-03T14:55:24.540Z,93753.78
2022-12-03T14:57:51.728Z,93757.66
2022-12-03T15:00:19.171Z,93756.00
2022-12-03T15:02:46.063Z,93759.81
2022-12-03T15:05:13.894Z,93751.69
2022-12-03T15:07:41.044Z,93747.09
2022-12-03T15:10:09.445Z,93745.47
2022-12-03T15:12:36.668Z,93752.19
2022-12-03T15:15:04.147Z,93753.13
2022-12-03T15:17:32.138Z,93752.59
2022-12-03T15:20:00.442Z,93763.97
2022-12-03T15:22:28.551Z,93749.63
2022-12-03T15:24:55.624Z,93756.63
2022-12-03T15:27:22.386Z,93758.44
2022-12-03T15:29:49.198Z,93757.94
2022-12-03T15:32:22.001Z,93753.47
2022-12-03T15:34:51.515Z,93755.19
2022-12-03T15:37:18.656Z,93761.94
2022-12-03T15:39:52.719Z,93758.41
2022-12-03T15:42:20.598Z,93756.84
2022-12-03T15:44:47.360Z,93758.09
2022-12-03T15:47:14.094Z,93750.47
2022-12-03T15:49:40.859Z,93754.72
2022-12-03T15:52:09.973Z,93752.25
2022-12-03T15:54:37.049Z,93752.56
2022-12-03T15:57:04.180Z,93760.88
2022-12-03T15:59:31.427Z,93763.66
2022-12-03T16:01:58.246Z,93754.19
2022-12-03T16:04:25.620Z,93760.94
2022-12-03T16:06:52.664Z,93763.16
2022-12-03T16:09:25.243Z,93761.69
2022-12-03T16:11:55.273Z,93754.53
2022-12-03T16:14:22.420Z,93757.56
2022-12-03T16:16:49.251Z,93747.88
2022-12-03T16:19:16.318Z,93747.47
2022-12-03T16:21:43.394Z,93750.56
2022-12-03T16:24:10.251Z,93753.00
2022-12-03T16:26:37.250Z,93758.31
2022-12-03T16:29:04.321Z,93746.34
2022-12-03T16:31:31.197Z,93758.50
2022-12-03T16:33:58.220Z,93755.06
2022-12-03T16:36:24.932Z,93746.00
2022-12-03T16:38:51.652Z,93752.66
2022-12-03T16:41:18.502Z,93756.94
2022-12-03T16:43:45.802Z,93753.19
2022-12-03T16:46:12.719Z,93753.13
2022-12-03T16:48:39.439Z,93745.47
2022-12-03T16:51:06.528Z,93741.09
2022-12-03T16:53:33.252Z,93749.72
2022-12-03T16:56:00.684Z,93741.66
2022-12-03T16:58:27.517Z,93744.69
2022-12-03T17:00:55.511Z,93747.88
2022-12-03T17:03:22.517Z,93746.56
2022-12-03T17:05:49.755Z,93745.47
2022-12-03T17:08:16.702Z,93746.75
2022-12-03T17:10:43.756Z,93741.75
2022-12-03T17:13:11.020Z,93741.00
2022-12-03T17:15:38.573Z,93737.63
2022-12-03T17:18:05.744Z,93736.53
2022-12-03T17:20:33.054Z,93734.00
2022-12-03T17:22:59.984Z,93733.81
2022-12-03T17:25:26.937Z,93725.81
2022-12-03T17:27:53.811Z,93731.34
2022-12-03T17:30:21.320Z,93728.69
2022-12-03T17:32:48.370Z,93731.13
2022-12-03T17:35:15.084Z,93733.78
2022-12-03T17:37:42.257Z,93731.97
2022-12-03T17:40:11.971Z,93737.91
2022-12-03T17:42:38.675Z,93724.81
2022-12-03T17:45:07.354Z,93735.22
2022-12-03T17:47:34.249Z,93740.56
2022-12-03T17:50:01.942Z,93742.28
2022-12-03T17:52:28.726Z,93739.34
2022-12-03T17:55:10.916Z,93737.28
2022-12-03T17:57:38.853Z,93732.47
2022-12-03T18:00:11.510Z,93746.78
2022-12-03T18:02:38.388Z,93743.06
2022-12-03T18:05:05.965Z,93741.09
2022-12-03T18:07:33.379Z,93739.38
2022-12-03T18:10:01.990Z,93731.78
2022-12-03T18:12:28.949Z,93736.53
2022-12-03T18:14:55.892Z,93738.06
2022-12-03T18:17:22.614Z,93735.81
2022-12-03T18:19:50.487Z,93735.69
2022-12-03T18:22:17.529Z,93733.03
2022-12-03T18:24:46.265Z,93730.50
2022-12-03T18:27:14.479Z,93723.06
2022-12-03T18:29:41.332Z,93728.84
2022-12-03T18:32:27.114Z,93733.56
2022-12-03T18:34:56.637Z,93726.78
2022-12-03T18:37:27.141Z,93732.72
2022-12-03T18:39:54.106Z,93722.44
2022-12-03T18:42:21.602Z,93734.16
2022-12-03T18:44:49.953Z,93732.19
2022-12-03T18:47:19.202Z,93734.88
2022-12-03T18:49:45.944Z,93728.84
2022-12-03T18:52:13.841Z,93735.22
2022-12-03T18:54:40.545Z,93732.94
2022-12-03T18:57:07.296Z,93729.97
2022-12-03T18:59:34.076Z,93730.19
2022-12-03T19:02:01.200Z,93730.28
2022-12-03T19:04:28.020Z,93722.66
2022-12-03T19:06:55.208Z,93723.75
2022-12-03T19:09:21.925Z,93723.75
2022-12-03T19:11:49.791Z,93726.00
2022-12-03T19:14:16.819Z,93720.38
2022-12-03T19:16:43.621Z,93726.59
2022-12-03T19:19:14.480Z,93730.50
2022-12-03T19:21:41.522Z,93735.13
2022-12-03T19:24:25.256Z,93740.03
2022-12-03T19:26:52.496Z,93735.72
2022-12-03T19:29:19.326Z,93735.00
2022-12-03T19:31:46.149Z,93732.84
2022-12-03T19:34:13.955Z,93714.56
2022-12-03T19:36:40.873Z,93719.31
2022-12-03T19:39:07.894Z,93728.22
2022-12-03T19:41:34.973Z,93729.00
2022-12-03T19:44:05.136Z,93733.19
2022-12-03T19:46:36.209Z,93724.13
2022-12-03T19:49:03.000Z,93722.41
2022-12-03T19:51:35.043Z,93713.34
2022-12-03T19:54:06.672Z,93717.59
2022-12-03T19:56:33.477Z,93719.41
2022-12-03T19:59:00.482Z,93717.53
2022-12-03T20:01:32.658Z,93718.63
2022-12-03T20:04:00.791Z,93716.31
2022-12-03T20:06:30.236Z,93705.50
2022-12-03T20:09:01.852Z,93708.38
2022-12-03T20:11:30.096Z,93718.75
2022-12-03T20:13:58.981Z,93722.44
2022-12-03T20:16:25.815Z,93725.28
2022-12-03T20:18:56.250Z,93723.22
2022-12-03T20:21:23.291Z,93721.69
2022-12-03T20:23:52.854Z,93718.63
2022-12-03T20:26:19.986Z,93720.28
2022-12-03T20:28:47.957Z,93714.50
2022-12-03T20:31:18.753Z,93710.59
2022-12-03T20:33:47.831Z,93718.84
2022-12-03T20:36:15.368Z,93727.13
2022-12-03T20:38:42.222Z,93719.81
2022-12-03T20:41:10.641Z,93710.94
2022-12-03T20:43:37.376Z,93715.19
2022-12-03T20:46:10.711Z,93725.28
2022-12-03T20:48:37.702Z,93735.72
2022-12-03T20:51:09.610Z,93729.47
2022-12-03T20:53:36.781Z,93724.94
2022-12-03T20:56:04.812Z,93734.09
2022-12-03T20:58:31.633Z,93738.69
2022-12-03T21:01:18.357Z,93750.72
2022-12-03T21:03:46.189Z,93740.03
2022-12-03T21:06:13.446Z,93733.81
2022-12-03T21:08:42.700Z,93729.78
2022-12-03T21:11:13.938Z,93730.34
2022-12-03T21:13:41.695Z,93744.59
2022-12-03T21:16:12.053Z,93738.28
2022-12-03T21:18:39.447Z,93738.19
2022-12-03T21:21:07.925Z,93748.59
2022-12-03T21:23:34.936Z,93735.56
2022-12-03T21:26:07.059Z,93750.09
2022-12-03T21:28:34.151Z,93755.38
2022-12-03T21:31:08.069Z,93768.97
2022-12-03T21:33:36.362Z,93769.75
2022-12-03T21:36:05.617Z,93775.53
2022-12-03T21:38:33.112Z,93777.56
2022-12-03T21:41:01.108Z,93782.75
2022-12-03T21:43:28.685Z,93781.88
2022-12-03T21:45:57.757Z,93763.03
2022-12-03T21:48:25.038Z,93762.19
2022-12-03T21:51:02.381Z,93773.75
2022-12-03T21:53:29.926Z,93773.75
2022-12-03T21:55:58.613Z,93773.09
2022-12-03T21:58:26.204Z,93761.50
2022-12-03T22:00:52.991Z,93762.50
2022-12-03T22:03:20.270Z,93755.63
2022-12-03T22:05:47.115Z,93753.75
2022-12-03T22:08:13.989Z,93751.72
2022-12-03T22:10:41.010Z,93752.06
2022-12-03T22:13:07.883Z,93731.16
2022-12-03T22:15:34.941Z,93732.84
2022-12-03T22:18:02.181Z,93734.53
2022-12-03T22:20:29.255Z,93731.31
2022-12-03T22:22:56.235Z,93733.72
2022-12-03T22:25:22.973Z,93731.50
2022-12-03T22:27:49.812Z,93712.88
2022-12-03T22:30:16.578Z,93711.00
2022-12-03T22:32:45.481Z,93711.09
2022-12-03T22:35:19.542Z,93712.28
2022-12-03T22:37:47.355Z,93722.13
2022-12-03T22:40:14.565Z,93712.72
2022-12-03T22:42:46.372Z,93711.19
2022-12-03T22:45:17.696Z,93713.50
2022-12-03T22:47:45.456Z,93711.28
2022-12-03T22:50:12.432Z,93708.34
2022-12-03T22:52:39.344Z,93710.41
2022-12-03T22:55:08.696Z,93710.78
2022-12-03T22:57:35.823Z,93710.47
2022-12-03T23:00:05.563Z,93708.81
2022-12-03T23:02:33.333Z,93705.84
2022-12-03T23:05:00.884Z,93691.81
2022-12-03T23:07:30.943Z,93695.97
2022-12-03T23:10:00.612Z,93699.44
2022-12-03T23:12:27.747Z,93700.63
2022-12-03T23:14:55.201Z,93699.97
2022-12-03T23:17:22.796Z,93708.88
2022-12-03T23:19:49.544Z,93700.31
2022-12-03T23:22:16.793Z,93713.03
2022-12-03T23:24:43.895Z,93723.16
2022-12-03T23:27:10.654Z,93716.09
2022-12-03T23:29:37.786Z,93723.66
2022-12-03T23:32:05.101Z,93714.56
2022-12-03T23:34:32.503Z,93703.69
2022-12-03T23:36:59.641Z,93709.59
2022-12-03T23:39:26.891Z,93703.38
2022-12-03T23:41:53.969Z,93690.72
2022-12-03T23:44:20.772Z,93705.19
2022-12-03T23:46:47.604Z,93702.97
2022-12-03T23:49:14.605Z,93695.69
2022-12-03T23:51:41.475Z,93699.22
2022-12-03T23:54:09.061Z,93697.50
2022-12-03T23:56:36.198Z,93684.66
2022-12-03T23:59:03.049Z,93675.94
